Time;durP1;ratioP1;P1;durP2;ratioP2;P2;SDS_P1;SDS_P2;PMS_P1;PMS_P2;Temp;Humidity;BMP_temperature;BMP_pressure;BME280_temperature;BME280_humidity;BME280_pressure;Samples;Min_cycle;Max_cycle;Signal;HPM_P1;HPM_P2
2022/07/19 00:00:28;;;;;;;9.73;4.53;;;;;;;14.57;69.74;100789.83;1752455;79;20927;-74
2022/07/19 00:02:55;;;;;;;8.55;4.37;;;;;;;14.57;69.84;100796.48;1757177;79;20996;-74
2022/07/19 00:05:22;;;;;;;9.18;4.72;;;;;;;14.55;69.79;100792.63;1749822;79;21617;-74
2022/07/19 00:07:48;;;;;;;8.63;4.60;;;;;;;14.52;69.78;100797.39;1753319;81;22107;-73
2022/07/19 00:10:17;;;;;;;9.63;4.12;;;;;;;14.49;69.86;100796.34;1749743;80;21990;-73
2022/07/19 00:12:45;;;;;;;6.75;4.33;;;;;;;14.47;69.92;100796.45;1748843;80;21041;-73
2022/07/19 00:15:14;;;;;;;7.12;4.20;;;;;;;14.45;69.96;100802.89;1757224;81;21065;-72
2022/07/19 00:17:43;;;;;;;9.13;3.87;;;;;;;14.42;69.92;100800.48;1756221;81;21527;-71
2022/07/19 00:20:12;;;;;;;6.42;4.12;;;;;;;14.39;69.96;100798.95;1758327;80;20976;-72
2022/07/19 00:22:38;;;;;;;8.68;4.12;;;;;;;14.36;69.97;100797.03;1740045;79;21828;-71
2022/07/19 00:25:06;;;;;;;9.23;3.87;;;;;;;14.32;70.01;100795.98;1773865;79;21027;-74
2022/07/19 00:27:32;;;;;;;7.20;3.80;;;;;;;14.29;70.08;100800.25;1760400;79;21066;-73
2022/07/19 00:29:59;;;;;;;7.62;4.00;;;;;;;14.28;70.14;100802.56;1769601;78;20991;-73
2022/07/19 00:32:25;;;;;;;7.17;3.90;;;;;;;14.27;70.15;100798.19;1778659;79;21432;-71
2022/07/19 00:34:52;;;;;;;8.25;3.98;;;;;;;14.26;70.18;100800.50;1753103;79;21971;-72
2022/07/19 00:37:19;;;;;;;8.15;3.37;;;;;;;14.26;70.15;100799.17;1712753;82;21063;-71
2022/07/19 00:39:46;;;;;;;7.20;3.02;;;;;;;14.23;70.08;100798.12;1697468;82;20982;-71
2022/07/19 00:42:14;;;;;;;6.53;3.15;;;;;;;14.19;70.08;100795.40;1681634;81;21544;-72
2022/07/19 00:44:41;;;;;;;5.55;3.30;;;;;;;14.17;70.12;100799.98;1727052;81;21010;-72
2022/07/19 00:47:07;;;;;;;7.03;3.08;;;;;;;14.14;70.20;100792.78;1693670;81;21988;-72
2022/07/19 00:49:35;;;;;;;5.15;2.87;;;;;;;14.09;70.23;100787.88;1692722;83;21095;-71
2022/07/19 00:52:04;;;;;;;7.20;3.20;;;;;;;14.08;70.30;100795.95;1723497;82;21092;-74
2022/07/19 00:54:34;;;;;;;5.33;3.00;;;;;;;14.06;70.36;100788.12;1714889;82;21067;-75
2022/07/19 00:57:03;;;;;;;7.83;2.92;;;;;;;14.05;70.37;100790.44;1709191;82;20997;-71
2022/07/19 00:59:31;;;;;;;6.62;2.80;;;;;;;14.02;70.36;100789.39;1710063;82;21882;-71
2022/07/19 01:01:58;;;;;;;4.33;2.85;;;;;;;13.98;70.35;100786.14;1708673;82;20956;-71
2022/07/19 01:04:24;;;;;;;6.08;3.05;;;;;;;13.97;70.30;100791.59;1721532;82;21009;-72
2022/07/19 01:06:51;;;;;;;4.67;2.70;;;;;;;13.95;70.32;100790.39;1723899;82;20994;-72
2022/07/19 01:09:18;;;;;;;4.33;2.98;;;;;;;13.92;70.36;100789.84;1713104;82;21040;-74
2022/07/19 01:11:46;;;;;;;4.62;2.60;;;;;;;13.88;70.36;100785.74;1713516;82;21012;-72
2022/07/19 01:14:12;;;;;;;3.55;2.50;;;;;;;13.86;70.42;100786.37;1709945;82;20949;-75
2022/07/19 01:16:45;;;;;;;5.60;2.80;;;;;;;13.84;70.45;100787.84;1709680;81;21531;-72
2022/07/19 01:19:13;;;;;;;5.72;2.50;;;;;;;13.81;70.46;100782.80;1751419;80;21043;-72
2022/07/19 01:21:40;;;;;;;5.97;2.70;;;;;;;13.80;70.46;100790.41;1758073;80;21535;-70
2022/07/19 01:24:07;;;;;;;4.42;2.60;;;;;;;13.77;70.50;100795.97;1733719;81;21707;-71
2022/07/19 01:26:34;;;;;;;5.42;2.58;;;;;;;13.74;70.55;100793.09;1755096;80;20987;-71
2022/07/19 01:29:00;;;;;;;4.67;2.50;;;;;;;13.72;70.58;100789.74;1746023;80;20971;-71
2022/07/19 01:31:27;;;;;;;5.20;2.60;;;;;;;13.70;70.59;100789.04;1761820;79;21605;-70
2022/07/19 01:33:54;;;;;;;3.27;2.27;;;;;;;13.68;70.59;100789.63;1765776;80;21063;-71
2022/07/19 01:36:21;;;;;;;7.03;2.30;;;;;;;13.67;70.58;100785.30;1744767;80;21991;-71
2022/07/19 01:38:47;;;;;;;3.92;2.65;;;;;;;13.66;70.68;100790.25;1778466;79;21485;-71
2022/07/19 01:41:14;;;;;;;4.35;2.25;;;;;;;13.63;70.75;100788.36;1777930;79;21022;-72
2022/07/19 01:43:40;;;;;;;3.20;2.20;;;;;;;13.60;70.80;100782.80;1758973;79;21054;-73
2022/07/19 01:46:07;;;;;;;3.33;2.45;;;;;;;13.55;70.83;100783.70;1771474;79;20944;-72
2022/07/19 01:48:34;;;;;;;4.00;2.58;;;;;;;13.52;70.93;100787.11;1758292;79;21841;-72
2022/07/19 01:51:01;;;;;;;3.35;2.20;;;;;;;13.50;70.98;100789.87;1742981;81;21383;-73
2022/07/19 01:53:28;;;;;;;4.72;1.82;;;;;;;13.48;71.26;100794.48;1758122;79;21110;-73
2022/07/19 01:55:54;;;;;;;4.15;2.10;;;;;;;13.44;71.42;100797.89;1764482;79;21163;-72
2022/07/19 01:58:21;;;;;;;4.12;2.25;;;;;;;13.38;71.37;100800.20;1783134;79;21002;-73
2022/07/19 02:00:47;;;;;;;5.10;2.08;;;;;;;13.34;71.32;100792.16;1758088;79;21922;-71
2022/07/19 02:03:14;;;;;;;3.05;2.08;;;;;;;13.30;71.39;100794.70;1773008;80;20994;-72
2022/07/19 02:05:40;;;;;;;3.12;2.02;;;;;;;13.28;71.44;100799.30;1761987;79;20980;-74
2022/07/19 02:08:07;;;;;;;3.42;1.92;;;;;;;13.28;71.54;100800.63;1770971;79;20975;-72
2022/07/19 02:10:34;;;;;;;3.02;2.20;;;;;;;13.28;71.55;100803.28;1765685;79;21474;-73
2022/07/19 02:13:02;;;;;;;5.37;1.92;;;;;;;13.27;71.56;100813.53;1761791;79;21943;-72
2022/07/19 02:15:29;;;;;;;3.77;1.95;;;;;;;13.25;71.58;100810.17;1755274;79;21423;-72
2022/07/19 02:17:55;;;;;;;4.35;2.27;;;;;;;13.26;71.61;100815.83;1734902;81;21050;-72
2022/07/19 02:20:23;;;;;;;5.08;2.10;;;;;;;13.24;71.58;100808.50;1762350;79;21071;-72
2022/07/19 02:22:50;;;;;;;5.53;2.40;;;;;;;13.23;71.58;100812.97;1769800;79;20959;-73
2022/07/19 02:25:17;;;;;;;4.90;2.10;;;;;;;13.18;71.60;100816.44;1764260;79;21964;-72
2022/07/19 02:27:43;;;;;;;3.47;2.17;;;;;;;13.14;71.64;100812.37;1757151;79;20940;-73
2022/07/19 02:30:11;;;;;;;3.05;2.40;;;;;;;13.10;71.70;100817.06;1755699;79;22026;-72
2022/07/19 02:32:39;;;;;;;3.47;2.00;;;;;;;13.08;71.76;100819.50;1761154;79;20995;-73
2022/07/19 02:35:07;;;;;;;3.35;2.30;;;;;;;13.07;71.83;100817.33;1769301;79;21085;-72
2022/07/19 02:37:35;;;;;;;3.25;2.22;;;;;;;13.07;71.91;100815.16;1775087;79;22544;-71
2022/07/19 02:40:01;;;;;;;4.53;1.95;;;;;;;13.05;71.91;100820.59;1776597;79;21038;-71
2022/07/19 02:42:28;;;;;;;2.65;1.95;;;;;;;13.04;71.95;100818.92;1757218;79;21067;-70
2022/07/19 02:44:54;;;;;;;5.75;2.10;;;;;;;13.04;71.97;100820.73;1702921;83;21082;-71
2022/07/19 02:47:21;;;;;;;3.02;2.10;;;;;;;13.03;72.02;100819.05;1750598;80;20988;-70
2022/07/19 02:49:47;;;;;;;3.27;2.00;;;;;;;13.03;72.07;100821.22;1760487;79;21789;-71
2022/07/19 02:52:14;;;;;;;2.83;2.05;;;;;;;13.06;72.16;100820.11;1780296;79;20929;-73
2022/07/19 02:54:41;;;;;;;3.50;2.30;;;;;;;13.08;72.25;100825.64;1766595;79;21447;-72
2022/07/19 02:57:07;;;;;;;4.50;2.45;;;;;;;13.09;72.36;100824.67;1760344;79;20932;-72
2022/07/19 02:59:34;;;;;;;3.60;2.47;;;;;;;13.12;72.46;100822.23;1769193;79;21129;-70
2022/07/19 03:02:02;;;;;;;6.90;2.52;;;;;;;13.13;72.45;100819.48;1761393;79;21023;-71
2022/07/19 03:04:29;;;;;;;5.40;2.62;;;;;;;13.16;72.44;100827.66;1759261;80;21039;-70
2022/07/19 03:06:55;;;;;;;3.90;2.95;;;;;;;13.17;72.50;100827.53;1741486;79;20959;-70
2022/07/19 03:09:22;;;;;;;6.03;3.20;;;;;;;13.20;72.55;100832.25;1754427;79;21000;-71
2022/07/19 03:11:48;;;;;;;5.53;3.05;;;;;;;13.21;72.59;100827.30;1745921;80;20986;-73
2022/07/19 03:14:14;;;;;;;4.85;2.90;;;;;;;13.23;72.62;100832.86;1757988;79;22737;-73
2022/07/19 03:16:42;;;;;;;5.58;3.05;;;;;;;13.24;72.64;100830.56;1765068;79;22021;-71
2022/07/19 03:19:10;;;;;;;5.28;3.05;;;;;;;13.27;72.68;100832.95;1757468;79;21635;-72
2022/07/19 03:21:36;;;;;;;8.73;3.25;;;;;;;13.29;72.74;100828.83;1759827;79;21040;-71
2022/07/19 03:24:04;;;;;;;5.90;2.87;;;;;;;13.33;72.80;100835.09;1760427;81;21069;-71
2022/07/19 03:26:30;;;;;;;5.40;3.00;;;;;;;13.37;72.86;100837.00;1754666;79;21824;-72
2022/07/19 03:28:58;;;;;;;4.03;2.65;;;;;;;13.41;72.90;100831.33;1748330;80;21082;-73
2022/07/19 03:31:25;;;;;;;4.80;2.52;;;;;;;13.47;72.96;100828.62;1748981;80;21052;-73
2022/07/19 03:33:52;;;;;;;7.22;2.67;;;;;;;13.51;73.03;100834.05;1759692;80;21020;-74
2022/07/19 03:36:19;;;;;;;4.60;2.70;;;;;;;13.55;73.10;100831.96;1740044;80;21018;-72
2022/07/19 03:38:45;;;;;;;5.35;2.62;;;;;;;13.58;73.15;100831.20;1759339;80;21806;-72
2022/07/19 03:41:12;;;;;;;4.28;2.92;;;;;;;13.62;73.21;100829.99;1757817;79;20988;-72
2022/07/19 03:43:41;;;;;;;3.92;2.60;;;;;;;13.67;73.24;100830.42;1756451;80;20984;-72
2022/07/19 03:46:08;;;;;;;4.50;2.80;;;;;;;13.73;73.27;100831.73;1754055;81;20948;-72
2022/07/19 03:48:36;;;;;;;4.55;2.50;;;;;;;13.78;73.30;100824.20;1758928;81;20946;-73
2022/07/19 03:51:03;;;;;;;5.97;3.27;;;;;;;13.82;73.33;100826.13;1759768;79;21908;-73
2022/07/19 03:53:30;;;;;;;6.10;3.10;;;;;;;13.89;73.36;100830.75;1758426;81;21051;-74
2022/07/19 03:55:58;;;;;;;4.80;2.80;;;;;;;13.94;73.45;100833.02;1752472;81;20968;-72
2022/07/19 03:58:26;;;;;;;4.25;2.87;;;;;;;14.04;73.51;100816.64;1760422;79;20962;-72
2022/07/19 04:00:53;;;;;;;5.55;2.70;;;;;;;14.13;73.61;100825.14;1764002;79;21114;-72
2022/07/19 04:03:21;;;;;;;6.92;2.50;;;;;;;14.21;73.69;100823.99;1757711;79;22013;-73
2022/07/19 04:05:47;;;;;;;4.50;2.65;;;;;;;14.30;73.74;100827.66;1754454;79;20956;-73
2022/07/19 04:08:14;;;;;;;8.10;2.90;;;;;;;14.40;73.80;100827.70;1756921;81;21056;-73
2022/07/19 04:10:41;;;;;;;7.05;2.62;;;;;;;14.49;73.82;100830.91;1753090;79;20987;-72
2022/07/19 04:13:08;;;;;;;4.22;2.37;;;;;;;14.59;73.79;100832.61;1773831;79;21099;-72
2022/07/19 04:15:35;;;;;;;5.03;2.50;;;;;;;14.71;73.76;100831.99;1753921;79;21927;-72
2022/07/19 04:18:01;;;;;;;4.25;2.60;;;;;;;14.80;73.77;100829.84;1756494;79;20967;-74
2022/07/19 04:20:29;;;;;;;8.10;2.45;;;;;;;14.89;73.74;100831.67;1763906;79;21034;-73
2022/07/19 04:22:57;;;;;;;7.28;2.42;;;;;;;15.00;73.69;100831.19;1759651;79;21097;-72
2022/07/19 04:25:24;;;;;;;3.50;2.30;;;;;;;15.10;73.69;100832.03;1762353;79;20931;-72
2022/07/19 04:27:50;;;;;;;4.65;2.45;;;;;;;15.20;73.71;100830.21;1762937;79;21775;-74
2022/07/19 04:30:16;;;;;;;5.00;2.37;;;;;;;15.30;73.63;100833.70;1760948;79;21069;-72
2022/07/19 04:32:43;;;;;;;3.70;2.85;;;;;;;15.39;73.51;100826.70;1755213;79;21486;-75
2022/07/19 04:35:11;;;;;;;6.53;2.58;;;;;;;15.49;73.37;100826.19;1766669;79;20991;-73
2022/07/19 04:37:38;;;;;;;5.80;2.40;;;;;;;15.59;73.28;100824.35;1752968;80;21057;-72
2022/07/19 04:40:07;;;;;;;4.22;2.70;;;;;;;15.72;73.19;100826.73;1725150;80;21895;-76
2022/07/19 04:42:34;;;;;;;7.10;2.77;;;;;;;15.83;73.15;100821.27;1757764;79;20944;-75
2022/07/19 04:45:01;;;;;;;25.12;19.45;;;;;;;15.94;73.10;100820.23;1757625;79;21006;-74
2022/07/19 04:47:28;;;;;;;40.03;33.75;;;;;;;16.02;73.08;100825.19;1756825;79;20972;-73
2022/07/19 04:49:54;;;;;;;135.22;120.30;;;;;;;16.13;73.03;100819.33;1758384;79;21344;-73
2022/07/19 04:52:20;;;;;;;22.70;16.52;;;;;;;16.24;72.90;100823.13;1765548;79;21856;-72
2022/07/19 04:54:48;;;;;;;9.63;6.80;;;;;;;16.35;72.63;100820.27;1779024;79;20932;-72
2022/07/19 04:57:15;;;;;;;6.22;3.45;;;;;;;16.46;72.24;100815.23;1758496;79;20994;-72
2022/07/19 04:59:42;;;;;;;4.30;2.65;;;;;;;16.56;71.74;100822.17;1757439;79;21057;-73
2022/07/19 05:02:09;;;;;;;5.72;2.65;;;;;;;16.69;71.42;100815.17;1763723;79;21050;-72
2022/07/19 05:04:35;;;;;;;5.15;2.70;;;;;;;16.81;71.19;100821.98;1750306;80;21935;-71
2022/07/19 05:07:02;;;;;;;5.33;2.77;;;;;;;16.92;70.75;100822.27;1774455;79;20993;-71
2022/07/19 05:09:28;;;;;;;5.08;2.75;;;;;;;17.07;70.61;100821.22;1763092;81;21033;-71
2022/07/19 05:11:56;;;;;;;5.70;2.70;;;;;;;17.20;70.46;100821.69;1758498;79;21001;-74
2022/07/19 05:14:22;;;;;;;18.48;15.23;;;;;;;17.30;70.30;100823.78;1754388;79;21692;-70
2022/07/19 05:16:49;;;;;;;8.28;5.47;;;;;;;17.42;70.20;100818.52;1765928;79;22418;-71
2022/07/19 05:19:17;;;;;;;8.70;3.10;;;;;;;17.57;70.15;100823.32;1752706;79;20995;-71
2022/07/19 05:21:44;;;;;;;4.75;2.50;;;;;;;17.70;69.93;100818.42;1780677;79;21015;-73
2022/07/19 05:24:10;;;;;;;8.50;2.60;;;;;;;17.82;69.75;100817.16;1749332;80;21026;-71
2022/07/19 05:26:37;;;;;;;7.22;2.45;;;;;;;17.93;69.27;100815.55;1772572;79;21047;-73
2022/07/19 05:29:04;;;;;;;3.55;2.30;;;;;;;18.06;69.00;100815.63;1756439;79;21881;-75
2022/07/19 05:31:30;;;;;;;3.52;2.20;;;;;;;18.17;68.71;100815.34;1777814;79;20983;-72
2022/07/19 05:33:57;;;;;;;4.10;2.05;;;;;;;18.26;68.54;100808.53;1761349;79;21078;-71
2022/07/19 05:36:24;;;;;;;3.85;2.17;;;;;;;18.36;68.45;100804.90;1756367;79;21539;-72
2022/07/19 05:38:52;;;;;;;11.88;10.13;;;;;;;18.46;67.99;100809.61;1750861;79;20995;-71
2022/07/19 05:41:21;;;;;;;8.48;6.28;;;;;;;18.56;67.79;100803.13;1758925;79;21831;-73
2022/07/19 05:43:47;;;;;;;9.25;6.80;;;;;;;18.68;67.62;100799.66;1771660;79;20980;-77
2022/07/19 05:46:14;;;;;;;12.78;10.75;;;;;;;18.78;67.40;100796.34;1771962;79;20988;-69
2022/07/19 05:48:41;;;;;;;4.10;2.90;;;;;;;18.90;67.25;100800.86;1760765;79;20998;-73
2022/07/19 05:51:07;;;;;;;4.37;2.20;;;;;;;19.00;66.53;100800.70;1761374;79;21006;-71
2022/07/19 05:53:35;;;;;;;4.12;1.80;;;;;;;19.09;66.03;100799.20;1761541;79;21993;-72
2022/07/19 05:56:03;;;;;;;2.55;1.70;;;;;;;19.22;65.62;100802.75;1759186;79;21041;-70
2022/07/19 05:58:30;;;;;;;4.15;1.80;;;;;;;19.32;64.76;100799.40;1779696;79;21070;-71
2022/07/19 06:03:41;;;;;;;2.75;1.50;;;;;;;19.51;63.23;100804.91;1762583;79;21341;-72
2022/07/19 06:06:10;;;;;;;2.87;1.60;;;;;;;19.61;62.73;100800.23;1768261;78;20995;-72
2022/07/19 06:08:37;;;;;;;4.25;1.40;;;;;;;19.72;62.15;100801.72;1761484;79;21453;-71
2022/07/19 06:11:04;;;;;;;4.30;1.50;;;;;;;19.83;61.24;100801.35;1759795;80;21023;-71
2022/07/19 06:13:31;;;;;;;1.52;1.22;;;;;;;19.93;60.77;100804.67;1758940;81;20966;-71
2022/07/19 06:15:57;;;;;;;2.25;1.15;;;;;;;20.03;59.67;100804.98;1760276;79;21103;-72
2022/07/19 06:18:24;;;;;;;2.77;1.27;;;;;;;20.10;58.90;100800.10;1770846;80;22501;-72
2022/07/19 06:20:52;;;;;;;2.00;1.20;;;;;;;20.20;58.58;100795.88;1723569;81;20939;-73
2022/07/19 06:23:19;;;;;;;1.75;0.98;;;;;;;20.32;58.18;100799.84;1771471;79;21038;-70
2022/07/19 06:25:46;;;;;;;2.67;0.90;;;;;;;20.43;56.62;100797.30;1758498;80;21146;-71
2022/07/19 06:28:12;;;;;;;3.98;1.17;;;;;;;20.56;55.21;100802.45;1730333;79;21441;-71
2022/07/19 06:30:39;;;;;;;8.23;2.08;;;;;;;20.68;54.55;100798.02;1757425;79;21869;-72
2022/07/19 06:33:08;;;;;;;2.50;1.02;;;;;;;20.80;54.39;100802.79;1760036;79;20975;-72
2022/07/19 06:35:36;;;;;;;1.07;0.70;;;;;;;20.91;52.76;100798.85;1726266;81;21008;-72
2022/07/19 06:38:04;;;;;;;2.70;0.65;;;;;;;20.98;49.65;100794.95;1748538;80;21017;-71
2022/07/19 06:40:33;;;;;;;0.95;0.50;;;;;;;21.06;49.19;100798.42;1748286;80;21063;-72
2022/07/19 06:43:00;;;;;;;5.95;0.65;;;;;;;21.20;48.54;100791.92;1722247;81;22196;-72
2022/07/19 06:45:27;;;;;;;1.00;0.65;;;;;;;21.27;46.25;100796.94;1731486;81;20950;-72
2022/07/19 06:47:54;;;;;;;1.92;0.53;;;;;;;21.31;45.14;100796.37;1718916;81;21072;-71
2022/07/19 06:50:22;;;;;;;2.12;0.62;;;;;;;21.36;45.97;100791.31;1728451;81;21068;-71
2022/07/19 06:52:49;;;;;;;2.30;0.70;;;;;;;21.47;46.12;100794.06;1729004;81;21035;-72
2022/07/19 06:55:17;;;;;;;2.02;0.88;;;;;;;21.60;46.02;100794.26;1715404;82;21777;-71
2022/07/19 06:57:43;;;;;;;1.62;0.65;;;;;;;21.71;44.46;100798.34;1721059;81;21028;-71
2022/07/19 07:00:13;;;;;;;2.60;0.70;;;;;;;21.77;43.86;100792.25;1692288;83;21047;-72
2022/07/19 07:02:40;;;;;;;1.47;0.70;;;;;;;21.85;44.12;100807.46;1741387;81;21453;-71
2022/07/19 07:05:09;;;;;;;4.45;0.85;;;;;;;21.94;44.28;100796.94;1717290;81;20965;-71
2022/07/19 07:07:36;;;;;;;7.92;1.10;;;;;;;22.03;44.06;100801.20;1720539;81;21893;-74
2022/07/19 07:10:06;;;;;;;1.67;0.70;;;;;;;;;;1750019;80;21518;-73
2022/07/19 07:12:38;;;;;;;3.58;0.80;;;;;;;22.13;43.02;100801.80;1739520;80;20999;-72
2022/07/19 07:15:07;;;;;;;2.70;0.62;;;;;;;22.18;43.52;100795.83;1752833;80;21018;-71
2022/07/19 07:17:36;;;;;;;13.95;0.88;;;;;;;22.24;42.97;100795.93;1746379;80;20955;-72
2022/07/19 07:20:05;;;;;;;1.62;0.60;;;;;;;22.26;42.69;100793.88;1749162;80;21781;-70
2022/07/19 07:22:34;;;;;;;4.53;0.70;;;;;;;22.27;42.66;100796.05;1749112;79;21004;-72
2022/07/19 07:25:01;;;;;;;5.12;0.70;;;;;;;22.35;43.20;100797.81;1751859;80;21042;-72
2022/07/19 07:27:28;;;;;;;2.77;0.80;;;;;;;22.44;44.03;100797.52;1750199;80;21051;-72
2022/07/19 07:29:55;;;;;;;2.67;0.70;;;;;;;22.52;43.34;100804.66;1747256;80;20996;-70
2022/07/19 07:32:21;;;;;;;3.37;0.75;;;;;;;22.59;42.02;100800.19;1750440;80;21759;-71
2022/07/19 07:34:48;;;;;;;3.00;0.70;;;;;;;22.59;41.47;100802.88;1747785;80;21267;-74
2022/07/19 07:37:15;;;;;;;4.00;0.88;;;;;;;22.65;41.69;100802.10;1758459;80;20988;-70
2022/07/19 07:39:42;;;;;;;4.87;0.88;;;;;;;22.72;40.88;100804.36;1753703;80;21501;-71
2022/07/19 07:42:09;;;;;;;2.83;0.72;;;;;;;22.70;40.35;100793.47;1752147;80;21087;-71
2022/07/19 07:44:36;;;;;;;5.15;0.80;;;;;;;22.70;40.49;100791.61;1754381;80;21730;-73
2022/07/19 07:47:03;;;;;;;2.00;0.80;;;;;;;22.71;40.42;100794.62;1758913;80;20992;-70
2022/07/19 07:49:31;;;;;;;0.95;0.70;;;;;;;22.75;41.15;100791.02;1737813;80;21485;-71
2022/07/19 07:51:58;;;;;;;1.92;0.60;;;;;;;22.81;40.12;100784.88;1768713;80;20997;-71
2022/07/19 07:54:26;;;;;;;1.00;0.60;;;;;;;22.83;39.10;100791.73;1742878;80;21062;-70
2022/07/19 07:56:53;;;;;;;2.10;0.65;;;;;;;22.97;38.46;100786.50;1771900;80;22510;-72
2022/07/19 07:59:21;;;;;;;3.10;0.60;;;;;;;23.02;39.23;100786.26;1755017;79;21023;-70
2022/07/19 08:01:48;;;;;;;1.40;0.70;;;;;;;23.14;39.22;100789.27;1752610;80;21526;-72
2022/07/19 08:04:16;;;;;;;1.82;0.75;;;;;;;23.22;38.15;100786.95;1748539;80;21081;-72
2022/07/19 08:06:45;;;;;;;13.58;1.90;;;;;;;23.30;38.54;100790.86;1749246;80;21482;-73
2022/07/19 08:09:12;;;;;;;5.33;0.80;;;;;;;23.45;38.49;100790.75;1752677;80;21930;-70
2022/07/19 08:11:39;;;;;;;4.08;0.70;;;;;;;23.57;38.22;100781.95;1753655;80;21037;-72
2022/07/19 08:14:07;;;;;;;1.10;0.68;;;;;;;23.65;37.13;100780.48;1749275;80;21011;-70
2022/07/19 08:16:35;;;;;;;2.75;0.90;;;;;;;23.63;36.83;100783.88;1755829;80;20951;-71
2022/07/19 08:19:02;;;;;;;6.78;1.10;;;;;;;23.65;37.85;100781.00;1764477;80;21046;-71
2022/07/19 08:21:28;;;;;;;3.27;1.00;;;;;;;23.72;37.26;100781.03;1767019;80;21960;-70
2022/07/19 08:23:55;;;;;;;5.00;0.70;;;;;;;23.80;37.47;100779.53;1747531;81;20946;-69
2022/07/19 08:26:22;;;;;;;4.42;0.90;;;;;;;23.83;37.63;100777.77;1733667;81;21015;-71
2022/07/19 08:28:48;;;;;;;2.33;0.62;;;;;;;23.91;37.63;100771.70;1748881;81;21458;-70
2022/07/19 08:31:15;;;;;;;1.72;0.70;;;;;;;24.02;37.37;100779.75;1752509;80;21431;-70
2022/07/19 08:33:43;;;;;;;4.35;0.80;;;;;;;24.03;37.20;100772.48;1749685;82;22006;-70
2022/07/19 08:36:10;;;;;;;1.82;0.78;;;;;;;24.02;37.98;100770.30;1739401;81;21110;-70
2022/07/19 08:38:38;;;;;;;1.98;0.80;;;;;;;24.01;37.89;100769.16;1726433;82;20956;-69
2022/07/19 08:41:05;;;;;;;1.72;0.80;;;;;;;24.01;38.58;100769.16;1733512;80;20936;-69
2022/07/19 08:43:31;;;;;;;17.25;1.20;;;;;;;24.05;38.50;100769.09;1724916;83;20955;-69
2022/07/19 08:46:02;;;;;;;2.47;0.93;;;;;;;24.08;38.46;100762.77;1736187;81;21827;-69
2022/07/19 08:48:34;;;;;;;5.87;1.32;;;;;;;24.21;39.43;100760.11;1756438;81;21511;-69
2022/07/19 08:51:02;;;;;;;36.93;3.65;;;;;;;24.39;37.39;100761.46;1756452;80;21035;-69
2022/07/19 08:53:31;;;;;;;2.65;0.80;;;;;;;24.43;37.22;100757.34;1756436;81;21058;-70
2022/07/19 08:55:59;;;;;;;4.05;1.00;;;;;;;24.49;37.59;100751.94;1747691;81;20956;-69
2022/07/19 08:58:26;;;;;;;5.33;0.82;;;;;;;24.59;37.26;100742.61;1749193;81;21829;-69
2022/07/19 09:00:52;;;;;;;2.27;1.00;;;;;;;24.61;36.54;100743.23;1750740;80;20987;-70
2022/07/19 09:03:19;;;;;;;1.27;0.70;;;;;;;24.58;37.31;100737.73;1722778;81;21084;-69
2022/07/19 09:05:46;;;;;;;2.17;0.75;;;;;;;24.63;37.67;100742.02;1734548;80;20990;-69
2022/07/19 09:08:17;;;;;;;21.48;2.62;;;;;;;24.62;37.31;100740.36;1753866;80;21073;-70
2022/07/19 09:11:14;;;;;;;4.40;1.10;;;;;;;24.53;37.55;100732.95;1753304;80;22037;-69
2022/07/19 09:13:16;;;;;;;5.97;1.05;;;;;;;24.54;38.42;100731.92;1719033;81;20891;-70
2022/07/19 09:15:50;;;;;;;1.95;0.90;;;;;;;24.58;38.03;100735.03;1744900;80;21416;-71
2022/07/19 09:18:26;;;;;;;2.80;0.90;;;;;;;24.54;37.69;100730.56;1723936;81;21480;-70
2022/07/19 09:21:02;;;;;;;1.27;0.70;;;;;;;24.57;39.05;100731.19;1737457;80;21565;-70
2022/07/19 09:23:29;;;;;;;3.05;0.80;;;;;;;24.59;38.29;100731.81;1722391;83;21937;-69
2022/07/19 09:26:00;;;;;;;2.70;1.20;;;;;;;24.52;38.09;100731.30;1723400;81;21500;-70
2022/07/19 09:28:29;;;;;;;4.03;1.10;;;;;;;24.48;38.31;100730.02;1724277;81;20968;-69
2022/07/19 09:30:57;;;;;;;2.20;0.85;;;;;;;24.43;38.75;100734.39;1728888;80;21105;-69
2022/07/19 09:33:27;;;;;;;2.50;1.00;;;;;;;24.35;38.72;100736.75;1724382;81;21576;-70
2022/07/19 09:36:00;;;;;;;1.75;0.93;;;;;;;24.30;38.87;100729.73;1728334;81;21799;-69
2022/07/19 09:38:34;;;;;;;1.32;0.78;;;;;;;24.28;38.69;100734.50;1757438;81;21408;-70
2022/07/19 09:41:13;;;;;;;1.85;0.82;;;;;;;24.26;38.95;100726.61;1756060;80;21093;-71
2022/07/19 09:43:59;;;;;;;1.72;0.90;;;;;;;24.31;38.82;100731.42;1724579;81;21142;-71
2022/07/19 09:46:36;;;;;;;2.47;0.88;;;;;;;24.39;38.77;100727.71;1760079;80;21027;-74
2022/07/19 09:49:13;;;;;;;7.55;0.90;;;;;;;24.45;38.96;100727.74;1751419;80;21875;-73
2022/07/19 09:51:45;;;;;;;5.90;1.00;;;;;;;24.50;39.29;100721.20;1759295;81;20903;-72
2022/07/19 09:54:14;;;;;;;3.12;0.80;;;;;;;24.63;39.59;100719.58;1723799;81;20964;-71
2022/07/19 09:56:43;;;;;;;3.40;0.98;;;;;;;24.79;38.69;100719.99;1735322;81;21110;-73
2022/07/19 09:59:09;;;;;;;2.55;1.00;;;;;;;24.94;38.96;100715.75;1715220;83;21055;-72
2022/07/19 10:01:37;;;;;;;1.37;0.80;;;;;;;25.13;38.42;100709.23;1747953;79;21710;-73
2022/07/19 10:04:15;;;;;;;2.85;0.95;;;;;;;25.32;38.31;100711.92;1759598;79;21061;-73
2022/07/19 10:06:43;;;;;;;1.50;0.88;;;;;;;25.51;38.44;100714.28;1750777;79;21060;-74
2022/07/19 10:09:13;;;;;;;3.90;0.90;;;;;;;25.61;37.58;100709.79;1749784;80;21042;-70
2022/07/19 10:11:40;;;;;;;3.67;0.90;;;;;;;25.59;37.49;100710.00;1783145;79;21087;-72
2022/07/19 10:14:07;;;;;;;2.20;0.70;;;;;;;25.58;37.66;100712.92;1755585;79;22574;-72
2022/07/19 10:16:50;;;;;;;2.45;0.90;;;;;;;25.58;37.42;100710.22;1764366;79;20984;-72
2022/07/19 10:19:37;;;;;;;1.07;0.70;;;;;;;25.61;37.30;100705.20;1728605;83;20955;-73
2022/07/19 10:22:06;;;;;;;3.47;0.95;;;;;;;25.67;37.60;100708.42;1742602;79;21034;-74
2022/07/19 10:24:49;;;;;;;5.85;0.80;;;;;;;25.65;36.92;100709.14;1759871;79;21027;-71
2022/07/19 10:27:21;;;;;;;2.83;0.90;;;;;;;25.56;36.62;100705.52;1730269;79;22494;-72
2022/07/19 10:29:48;;;;;;;3.12;0.90;;;;;;;25.43;36.46;100702.86;1725670;81;21003;-71
2022/07/19 10:32:15;;;;;;;1.87;0.85;;;;;;;25.30;36.91;100705.91;1754726;80;21082;-70
2022/07/19 10:34:45;;;;;;;3.95;0.85;;;;;;;25.18;36.90;100702.15;1754921;81;21450;-71
2022/07/19 10:37:11;;;;;;;7.50;1.10;;;;;;;25.06;37.24;100699.25;1760735;80;21085;-70
2022/07/19 10:39:40;;;;;;;5.80;1.17;;;;;;;24.96;37.98;100700.16;1768515;79;21891;-71
2022/07/19 10:42:23;;;;;;;5.80;1.02;;;;;;;24.92;38.62;100707.55;1769597;80;21041;-71
2022/07/19 10:45:01;;;;;;;3.27;1.00;;;;;;;24.88;38.34;100699.01;1759986;80;20959;-72
2022/07/19 10:47:38;;;;;;;4.40;1.10;;;;;;;24.85;38.38;100700.78;1751336;81;21028;-70
2022/07/19 10:50:09;;;;;;;2.22;1.00;;;;;;;24.79;38.51;100698.37;1773078;79;21044;-71
2022/07/19 10:52:44;;;;;;;13.40;1.10;;;;;;;24.75;38.93;100696.31;1773471;81;21884;-70
2022/07/19 10:55:28;;;;;;;13.72;1.25;;;;;;;24.70;38.75;100692.03;1767578;79;20997;-69
2022/07/19 10:58:10;;;;;;;5.50;1.05;;;;;;;24.61;38.56;100697.32;1768720;79;20918;-70
2022/07/19 11:00:47;;;;;;;3.90;1.00;;;;;;;24.50;39.44;100695.53;1760129;80;20949;-69
2022/07/19 11:03:28;;;;;;;2.37;0.80;;;;;;;24.44;39.53;100692.33;1773429;81;20993;-69
2022/07/19 11:05:59;;;;;;;2.45;0.90;;;;;;;24.32;39.67;100693.97;1749956;80;21838;-71
2022/07/19 11:08:40;;;;;;;9.33;1.10;;;;;;;24.23;39.92;100697.86;1770229;80;21008;-70
2022/07/19 11:11:14;;;;;;;12.68;1.20;;;;;;;24.15;40.60;100692.63;1784947;79;21020;-71
2022/07/19 11:13:49;;;;;;;5.62;0.80;;;;;;;24.03;40.34;100702.33;1779653;79;20984;-71
2022/07/19 11:16:16;;;;;;;12.78;0.95;;;;;;;23.92;40.81;100696.47;1761837;79;21047;-73
2022/07/19 11:18:44;;;;;;;6.08;1.20;;;;;;;23.88;40.79;100695.74;1787272;79;22128;-71
2022/07/19 11:21:14;;;;;;;20.88;1.30;;;;;;;23.84;41.19;100699.38;1785062;79;21017;-72
2022/07/19 11:23:41;;;;;;;4.30;0.95;;;;;;;23.84;41.47;100699.89;1784872;79;21072;-71
2022/07/19 11:26:17;;;;;;;2.17;1.00;;;;;;;23.80;41.63;100698.09;1767617;79;21040;-69
2022/07/19 11:28:45;;;;;;;3.65;1.00;;;;;;;23.78;41.57;100697.98;1798630;79;21500;-70
2022/07/19 11:31:19;;;;;;;1.98;1.10;;;;;;;23.74;41.41;100692.65;1767281;79;22635;-70